createdAt,value
2022-10-12T00:00:28.771Z,68.86
2022-10-12T00:03:17.156Z,68.99
2022-10-12T00:06:08.940Z,68.77
2022-10-12T00:08:56.974Z,68.49
2022-10-12T00:11:44.830Z,68.34
2022-10-12T00:14:37.087Z,68.53
2022-10-12T00:17:24.931Z,68.56
2022-10-12T00:20:12.840Z,68.91
2022-10-12T00:23:00.795Z,68.97
2022-10-12T00:25:48.663Z,69.04
2022-10-12T00:28:36.885Z,69.46
2022-10-12T00:31:25.208Z,69.54
2022-10-12T00:34:12.797Z,69.28
2022-10-12T00:37:00.634Z,69.52
2022-10-12T00:39:48.760Z,69.49
2022-10-12T00:42:36.563Z,69.43
2022-10-12T00:45:26.175Z,69.59
2022-10-12T00:48:14.254Z,69.50
2022-10-12T00:51:02.908Z,69.52
2022-10-12T00:53:57.517Z,69.51
2022-10-12T00:56:48.762Z,69.30
2022-10-12T01:00:06.184Z,68.94
2022-10-12T01:02:55.037Z,69.33
2022-10-12T01:05:43.833Z,69.63
2022-10-12T01:08:31.797Z,69.81
2022-10-12T01:11:19.621Z,69.92
2022-10-12T01:14:08.369Z,70.06
2022-10-12T01:17:09.553Z,69.92
2022-10-12T01:20:22.580Z,70.01
2022-10-12T01:23:28.912Z,70.07
2022-10-12T01:26:19.671Z,69.98
2022-10-12T01:29:43.118Z,70.13
2022-10-12T01:32:45.939Z,69.86
2022-10-12T01:35:43.717Z,69.73
2022-10-12T01:38:54.426Z,70.02
2022-10-12T01:41:48.823Z,69.99
2022-10-12T01:44:41.927Z,69.83
2022-10-12T01:47:31.746Z,69.88
2022-10-12T01:50:22.126Z,69.67
2022-10-12T01:53:09.706Z,69.56
2022-10-12T01:56:22.830Z,69.34
2022-10-12T01:59:28.061Z,69.44
2022-10-12T02:02:28.318Z,69.68
2022-10-12T02:05:23.736Z,69.86
2022-10-12T02:08:33.732Z,70.21
2022-10-12T02:11:24.266Z,70.30
2022-10-12T02:14:21.679Z,70.33
2022-10-12T02:17:13.429Z,70.40
2022-10-12T02:20:02.645Z,70.37
2022-10-12T02:22:52.083Z,70.15
2022-10-12T02:25:41.196Z,70.33
2022-10-12T02:28:32.587Z,70.37
2022-10-12T02:31:52.686Z,70.17
2022-10-12T02:34:55.567Z,70.35
2022-10-12T02:37:48.756Z,70.69
2022-10-12T02:40:54.403Z,70.72
2022-10-12T02:43:56.058Z,70.61
2022-10-12T02:46:46.445Z,70.78
2022-10-12T02:49:36.384Z,70.60
2022-10-12T02:52:25.116Z,70.76
2022-10-12T02:55:13.042Z,70.59
2022-10-12T02:58:00.704Z,70.76
2022-10-12T03:00:48.779Z,70.33
2022-10-12T03:03:36.664Z,70.66
2022-10-12T03:06:24.493Z,70.69
2022-10-12T03:09:12.302Z,70.87
2022-10-12T03:12:00.303Z,71.25
2022-10-12T03:14:48.134Z,71.11
2022-10-12T03:17:36.171Z,71.48
2022-10-12T03:20:24.092Z,71.47
2022-10-12T03:23:11.779Z,71.24
2022-10-12T03:25:59.779Z,71.42
2022-10-12T03:28:47.580Z,71.22
2022-10-12T03:31:35.169Z,71.23
2022-10-12T03:34:23.107Z,71.25
2022-10-12T03:37:11.237Z,70.95
2022-10-12T03:39:58.883Z,71.06
2022-10-12T03:42:46.900Z,70.70
2022-10-12T03:45:35.091Z,70.54
2022-10-12T03:48:23.134Z,70.51
2022-10-12T03:51:10.992Z,70.53
2022-10-12T03:53:58.562Z,70.18
2022-10-12T03:56:46.129Z,69.92
2022-10-12T03:59:34.040Z,69.50
2022-10-12T04:02:22.257Z,69.61
2022-10-12T04:05:10.171Z,69.82
2022-10-12T04:07:58.497Z,69.67
2022-10-12T04:10:46.461Z,69.80
2022-10-12T04:13:34.337Z,69.54
2022-10-12T04:16:24.095Z,69.32
2022-10-12T04:19:14.743Z,69.07
2022-10-12T04:22:02.310Z,68.68
2022-10-12T04:24:50.700Z,68.27
2022-10-12T04:27:38.495Z,68.23
2022-10-12T04:30:26.749Z,67.99
2022-10-12T04:33:14.942Z,67.92
2022-10-12T04:36:02.776Z,67.63
2022-10-12T04:38:51.027Z,67.28
2022-10-12T04:41:40.419Z,67.08
2022-10-12T04:44:32.136Z,66.92
2022-10-12T04:47:20.527Z,66.71
2022-10-12T04:50:08.893Z,66.42
2022-10-12T04:52:56.741Z,66.15
2022-10-12T04:55:44.445Z,66.04
2022-10-12T04:58:33.205Z,65.92
2022-10-12T05:01:21.359Z,65.72
2022-10-12T05:04:08.922Z,65.47
2022-10-12T05:06:57.025Z,65.69
2022-10-12T05:09:44.643Z,65.68
2022-10-12T05:12:32.227Z,65.93
2022-10-12T05:15:20.761Z,65.89
2022-10-12T05:18:08.750Z,65.62
2022-10-12T05:20:57.304Z,65.49
2022-10-12T05:23:45.286Z,65.20
2022-10-12T05:26:33.463Z,65.10
2022-10-12T05:29:21.115Z,64.94
2022-10-12T05:32:08.906Z,64.96
2022-10-12T05:34:57.044Z,64.98
2022-10-12T05:37:44.793Z,65.07
2022-10-12T05:40:32.767Z,65.18
2022-10-12T05:43:20.835Z,65.21
2022-10-12T05:46:13.557Z,64.96
2022-10-12T05:49:02.710Z,64.88
2022-10-12T05:51:50.397Z,64.77
2022-10-12T05:54:39.048Z,64.46
2022-10-12T05:57:26.641Z,63.81
2022-10-12T06:00:14.792Z,63.58
2022-10-12T06:03:03.020Z,63.03
2022-10-12T06:05:51.102Z,62.81
2022-10-12T06:08:39.239Z,62.88
2022-10-12T06:11:28.601Z,62.84
2022-10-12T06:14:18.185Z,62.85
2022-10-12T06:17:05.876Z,62.71
2022-10-12T06:19:54.014Z,62.36
2022-10-12T06:22:41.776Z,62.62
2022-10-12T06:25:29.683Z,62.74
2022-10-12T06:28:20.450Z,62.82
2022-10-12T06:31:08.098Z,62.96
2022-10-12T06:33:55.986Z,63.06
2022-10-12T06:36:44.023Z,62.73
2022-10-12T06:39:32.378Z,62.62
2022-10-12T06:42:19.967Z,62.34
2022-10-12T06:45:11.256Z,62.16
2022-10-12T06:47:58.882Z,61.71
2022-10-12T06:50:47.230Z,61.56
2022-10-12T06:53:35.219Z,61.12
2022-10-12T06:56:23.386Z,60.24
2022-10-12T06:59:14.142Z,59.34
2022-10-12T07:02:01.944Z,59.15
2022-10-12T07:04:53.830Z,58.99
2022-10-12T07:07:41.676Z,58.95
2022-10-12T07:10:29.832Z,58.71
2022-10-12T07:13:17.671Z,58.43
2022-10-12T07:16:05.524Z,58.29
2022-10-12T07:18:53.888Z,58.11
2022-10-12T07:21:41.502Z,58.02
2022-10-12T07:24:36.552Z,57.91
2022-10-12T07:27:24.155Z,57.47
2022-10-12T07:30:13.112Z,57.37
2022-10-12T07:33:00.946Z,57.18
2022-10-12T07:36:13.381Z,56.72
2022-10-12T07:39:02.506Z,56.42
2022-10-12T07:41:51.452Z,56.03
2022-10-12T07:44:39.388Z,55.38
2022-10-12T07:47:27.270Z,55.05
2022-10-12T07:50:16.002Z,54.62
2022-10-12T07:53:03.835Z,54.40
2022-10-12T07:55:52.249Z,53.91
2022-10-12T07:58:40.150Z,53.12
2022-10-12T08:01:30.269Z,53.11
2022-10-12T08:04:18.208Z,52.31
2022-10-12T08:07:06.053Z,51.81
2022-10-12T08:09:54.079Z,51.33
2022-10-12T08:12:41.954Z,51.13
2022-10-12T08:15:29.952Z,50.98
2022-10-12T08:18:17.786Z,50.87
2022-10-12T08:21:07.596Z,50.88
2022-10-12T08:23:55.511Z,50.85
2022-10-12T08:26:43.645Z,50.32
2022-10-12T08:29:31.462Z,50.02
2022-10-12T08:32:19.605Z,49.78
2022-10-12T08:35:07.472Z,49.74
2022-10-12T08:37:55.084Z,49.13
2022-10-12T08:40:54.945Z,48.85
2022-10-12T08:44:05.001Z,48.60
2022-10-12T08:47:18.132Z,48.44
2022-10-12T08:50:10.632Z,48.36
2022-10-12T08:53:16.013Z,48.68
2022-10-12T08:56:03.905Z,48.80
2022-10-12T08:58:53.163Z,48.57
2022-10-12T09:02:02.029Z,48.79
2022-10-12T09:04:49.874Z,48.70
2022-10-12T09:07:44.314Z,48.78
2022-10-12T09:10:47.318Z,48.55
2022-10-12T09:13:52.063Z,48.39
2022-10-12T09:16:44.783Z,48.41
2022-10-12T09:19:41.387Z,48.40
2022-10-12T09:22:31.082Z,48.30
2022-10-12T09:25:27.042Z,48.19
2022-10-12T09:28:41.272Z,48.23
2022-10-12T09:31:41.345Z,48.18
2022-10-12T09:34:29.250Z,47.97
2022-10-12T09:37:28.312Z,47.89
2022-10-12T09:40:26.467Z,47.29
2022-10-12T09:43:14.770Z,47.32
2022-10-12T09:46:06.835Z,47.10
2022-10-12T09:48:59.593Z,46.82
2022-10-12T09:51:47.328Z,46.88
2022-10-12T09:54:35.688Z,46.67
2022-10-12T09:57:31.362Z,46.61
2022-10-12T10:00:31.483Z,46.90
2022-10-12T10:03:30.606Z,46.44
2022-10-12T10:06:26.233Z,46.28
2022-10-12T10:09:32.011Z,46.42
2022-10-12T10:12:29.485Z,46.22
2022-10-12T10:15:38.875Z,46.54
2022-10-12T10:18:38.726Z,46.88
2022-10-12T10:21:29.353Z,47.00
2022-10-12T10:24:28.611Z,47.09
2022-10-12T10:27:40.269Z,47.19
2022-10-12T10:30:39.628Z,47.00
2022-10-12T10:33:34.309Z,47.00
2022-10-12T10:36:25.140Z,47.09
2022-10-12T10:39:29.235Z,46.83
2022-10-12T10:42:24.897Z,46.97
2022-10-12T10:45:23.679Z,46.99
2022-10-12T10:48:18.218Z,47.03
2022-10-12T10:51:07.551Z,47.00
2022-10-12T10:53:56.622Z,46.96
2022-10-12T10:56:47.077Z,46.34
2022-10-12T11:00:26.055Z,46.51
2022-10-12T11:03:13.585Z,46.75
2022-10-12T11:06:11.757Z,46.58
2022-10-12T11:09:06.916Z,46.32
2022-10-12T11:12:00.708Z,46.61
2022-10-12T11:14:52.251Z,46.90
2022-10-12T11:17:47.250Z,47.30
2022-10-12T11:20:45.521Z,47.88
2022-10-12T11:23:39.330Z,48.12
2022-10-12T11:26:35.608Z,48.36
2022-10-12T11:29:23.898Z,48.19
2022-10-12T11:32:23.327Z,47.72
2022-10-12T11:35:41.194Z,47.29
2022-10-12T11:38:45.020Z,47.09
2022-10-12T11:42:03.273Z,46.76
2022-10-12T11:44:55.092Z,46.80
2022-10-12T11:47:47.228Z,46.98
2022-10-12T11:50:37.421Z,47.25
2022-10-12T11:53:28.507Z,47.34
2022-10-12T11:56:26.135Z,48.09
2022-10-12T11:59:24.632Z,48.47
2022-10-12T12:02:34.567Z,48.64
2022-10-12T12:05:26.192Z,48.89
2022-10-12T12:08:55.378Z,49.40
2022-10-12T12:11:43.461Z,49.42
2022-10-12T12:14:31.422Z,49.91
2022-10-12T12:17:19.318Z,49.87
2022-10-12T12:20:44.852Z,50.11
2022-10-12T12:23:42.699Z,50.26
2022-10-12T12:26:31.076Z,50.70
2022-10-12T12:29:29.833Z,51.05
2022-10-12T12:32:20.092Z,51.40
2022-10-12T12:35:30.012Z,51.18
2022-10-12T12:38:24.144Z,51.44
2022-10-12T12:41:20.216Z,51.56
2022-10-12T12:44:33.751Z,51.73
2022-10-12T12:47:45.471Z,51.94
2022-10-12T12:50:39.820Z,52.37
2022-10-12T12:53:31.011Z,52.73
2022-10-12T12:56:48.219Z,53.22
2022-10-12T13:00:04.486Z,53.57
2022-10-12T13:03:19.885Z,53.68
2022-10-12T13:06:28.934Z,54.05
2022-10-12T13:09:16.822Z,54.21
2022-10-12T13:12:23.090Z,54.39
2022-10-12T13:15:21.189Z,54.44
2022-10-12T13:18:45.966Z,54.43
